Latest Weather Observations for Lord Howe Island Windy Point

IDN60801

Issued at 10:52 am EDT Friday 15 November 2019 (issued every 10 minutes, with the page automatically refreshed every 10 minutes)

About weather observations | Map of weather stations | Latest weather observations for NSW | Other Formats
Station Details ID: 200715 Name: LORD HOWE ISLAND WINDY POINT Lat: -31.54 Lon: 159.07 Height: 4.0 m
Data from the previous 72 hours. | See also: Recent months at Lord Howe Island Windy Point
Date/Time
EDT
Temp
°C
App
Temp
°C
Dew
Point
°C
Rel
Hum
%
Delta-T
°C
Wind Press
QNH
hPa
Press
MSL
hPa
Rain since
9am
mm
Dir  Spd
km/h
Gust
km/h
Spd
kts
Gust
kts
15/10:30am - - - - - NW 17 30 9 16 - - -
15/10:00am - - - - - NW 20 30 11 16 - - -
15/09:30am - - - - - NW 17 30 9 16 - - -
15/09:00am - - - - - NW 17 30 9 16 - - -
15/08:30am - - - - - NW 22 33 12 18 - - -
15/08:00am - - - - - NW 17 32 9 17 - - -
15/07:30am - - - - - NW 17 22 9 12 - - -
15/07:00am - - - - - NW 15 24 8 13 - - -
15/06:30am - - - - - NW 19 28 10 15 - - -
15/06:00am - - - - - NNW 13 19 7 10 - - -
15/05:30am - - - - - NNW 19 28 10 15 - - -
15/05:00am - - - - - NW 13 20 7 11 - - -
15/04:30am - - - - - NW 11 19 6 10 - - -
15/04:00am - - - - - NW 13 17 7 9 - - -
15/03:30am - - - - - NNW 7 13 4 7 - - -
15/03:00am - - - - - NNE 6 15 3 8 - - -
15/02:30am - - - - - E 6 9 3 5 - - -
15/02:00am - - - - - E 7 9 4 5 - - -
15/01:30am - - - - - E 6 9 3 5 - - -
15/01:00am - - - - - NE 7 13 4 7 - - -
15/12:30am - - - - - NNE 9 13 5 7 - - -
15/12:00am - - - - - NNE 9 15 5 8 - - -
 
Date/Time
EDT
Temp
°C
App
Temp
°C
Dew
Point
°C
Rel
Hum
%
Delta-T
°C
Wind Press
QNH
hPa
Press
MSL
hPa
Rain since
9am
mm
Dir  Spd
km/h
Gust
km/h
Spd
kts
Gust
kts
14/11:30pm - - - - - N 6 11 3 6 - - -
14/11:00pm - - - - - N 7 13 4 7 - - -
14/10:30pm - - - - - NNE 6 9 3 5 - - -
14/10:00pm - - - - - NNW 9 11 5 6 - - -
14/09:30pm - - - - - N 7 11 4 6 - - -
14/09:00pm - - - - - NNW 7 13 4 7 - - -
14/08:30pm - - - - - NNW 7 11 4 6 - - -
14/08:00pm - - - - - N 7 9 4 5 - - -
14/07:30pm - - - - - N 7 9 4 5 - - -
14/07:00pm - - - - - NW 7 9 4 5 - - -
14/06:30pm - - - - - NW 11 15 6 8 - - -
14/06:00pm - - - - - WNW 11 15 6 8 - - -
14/05:30pm - - - - - W 9 13 5 7 - - -
14/05:00pm - - - - - W 13 17 7 9 - - -
14/04:30pm - - - - - W 13 17 7 9 - - -
14/04:00pm - - - - - WSW 7 9 4 5 - - -
14/03:30pm - - - - - W 7 9 4 5 - - -
14/03:00pm - - - - - SW 11 15 6 8 - - -
14/02:30pm - - - - - SW 15 17 8 9 - - -
14/02:00pm - - - - - SW 15 17 8 9 - - -
14/01:30pm - - - - - SW 17 19 9 10 - - -
14/01:00pm - - - - - WSW 17 20 9 11 - - -
14/12:30pm - - - - - WSW 19 22 10 12 - - -
14/12:00pm - - - - - WSW 20 24 11 13 - - -
14/11:30am - - - - - WSW 20 24 11 13 - - -
14/11:00am - - - - - WSW 22 26 12 14 - - -
14/10:30am - - - - - WSW 22 24 12 13 - - -
14/10:00am - - - - - WSW 20 24 11 13 - - -
14/09:30am - - - - - WSW 20 24 11 13 - - -
14/09:00am - - - - - W 19 22 10 12 - - -
14/08:30am - - - - - WSW 19 20 10 11 - - -
14/08:00am - - - - - W 17 20 9 11 - - -
14/07:30am - - - - - W 17 20 9 11 - - -
14/07:00am - - - - - W 17 20 9 11 - - -
14/06:30am - - - - - CALM 0 0 0 0 - - -
14/06:00am - - - - - CALM 0 0 0 0 - - -
14/05:30am - - - - - ENE 2 6 1 3 - - -
14/05:00am - - - - - NE 4 6 2 3 - - -
14/04:30am - - - - - SW 13 17 7 9 - - -
14/04:00am - - - - - WSW 11 15 6 8 - - -
14/03:30am - - - - - SW 11 15 6 8 - - -
14/03:00am - - - - - SW 15 17 8 9 - - -
14/02:30am - - - - - SW 15 19 8 10 - - -
14/02:00am - - - - - SW 15 19 8 10 - - -
14/01:30am - - - - - SW 19 22 10 12 - - -
14/01:00am - - - - - SW 20 24 11 13 - - -
14/12:30am - - - - - SW 20 26 11 14 - - -
14/12:00am - - - - - SW 22 28 12 15 - - -
 
Date/Time
EDT
Temp
°C
App
Temp
°C
Dew
Point
°C
Rel
Hum
%
Delta-T
°C
Wind Press
QNH
hPa
Press
MSL
hPa
Rain since
9am
mm
Dir  Spd
km/h
Gust
km/h
Spd
kts
Gust
kts
13/11:30pm - - - - - SSW 22 28 12 15 - - -
13/11:00pm - - - - - S 11 17 6 9 - - -
13/10:30pm - - - - - SSW 22 28 12 15 - - -
13/10:00pm - - - - - SSW 22 26 12 14 - - -
13/09:30pm - - - - - SSW 22 28 12 15 - - -
13/09:00pm - - - - - S 17 30 9 16 - - -
13/08:30pm - - - - - SSW 22 26 12 14 - - -
13/08:00pm - - - - - S 20 26 11 14 - - -
13/07:30pm - - - - - SSW 24 30 13 16 - - -
13/07:00pm - - - - - S 24 35 13 19 - - -
13/06:30pm - - - - - SSW 26 33 14 18 - - -
13/06:00pm - - - - - SSW 28 33 15 18 - - -
13/05:30pm - - - - - SSW 32 37 17 20 - - -
13/05:00pm - - - - - SSW 33 41 18 22 - - -
13/04:30pm - - - - - SSW 35 43 19 23 - - -
13/04:00pm - - - - - SSW 37 46 20 25 - - -
13/03:30pm - - - - - SSW 41 48 22 26 - - -
13/03:00pm - - - - - SSW 41 48 22 26 - - -
13/02:30pm - - - - - SSW 41 50 22 27 - - -
13/02:00pm - - - - - SSW 41 50 22 27 - - -
13/01:30pm - - - - - SSW 43 52 23 28 - - -
13/01:00pm - - - - - SSW 41 52 22 28 - - -
13/12:30pm - - - - - SSW 43 50 23 27 - - -
13/12:00pm - - - - - SSW 39 52 21 28 - - -
13/11:37am - - - - - WSW 39 46 21 25 - - -
13/11:30am - - - - - W 41 50 22 27 - - -
13/11:28am - - - - - W 41 50 22 27 - - -
13/11:03am - - - - - WNW 41 59 22 32 - - -
13/11:00am - - - - - NW 44 59 24 32 - - -
13/10:30am - - - - - NW 44 63 24 34 - - -
13/10:00am - - - - - NW 44 72 24 39 - - -
13/09:30am - - - - - NNW 44 67 24 36 - - -
13/09:00am - - - - - NNW 39 65 21 35 - - -
13/08:30am - - - - - NW 39 59 21 32 - - -
13/08:02am - - - - - NW 37 61 20 33 - - -
13/08:00am - - - - - NW 39 56 21 30 - - -
13/07:30am - - - - - NW 39 57 21 31 - - -
13/07:00am - - - - - NW 28 56 15 30 - - -
13/06:36am - - - - - NW 30 50 16 27 - - -
13/06:30am - - - - - NW 26 43 14 23 - - -
13/06:19am - - - - - NW 28 46 15 25 - - -
13/06:00am - - - - - NW 26 43 14 23 - - -
13/05:30am - - - - - NW 26 44 14 24 - - -
13/05:00am - - - - - NW 24 41 13 22 - - -
13/04:30am - - - - - WNW 19 37 10 20 - - -
13/04:00am - - - - - NW 19 32 10 17 - - -
13/03:30am - - - - - NW 19 35 10 19 - - -
13/03:00am - - - - - NW 17 30 9 16 - - -
13/02:30am - - - - - NW 19 35 10 19 - - -
13/02:00am - - - - - WNW 17 30 9 16 - - -
13/01:30am - - - - - NW 19 32 10 17 - - -
13/01:00am - - - - - WNW 17 28 9 15 - - -
13/12:30am - - - - - WNW 13 22 7 12 - - -
13/12:00am - - - - - NW 13 33 7 18 - - -
 
Date/Time
EDT
Temp
°C
App
Temp
°C
Dew
Point
°C
Rel
Hum
%
Delta-T
°C
Wind Press
QNH
hPa
Press
MSL
hPa
Rain since
9am
mm
Dir  Spd
km/h
Gust
km/h
Spd
kts
Gust
kts
12/11:30pm - - - - - WNW 17 28 9 15 - - -
12/11:00pm - - - - - NW 19 32 10 17 - - -
12/10:30pm - - - - - WNW 19 35 10 19 - - -
12/10:00pm - - - - - WNW 17 30 9 16 - - -
12/09:30pm - - - - - WNW 15 28 8 15 - - -
12/09:00pm - - - - - NNE 11 24 6 13 - - -
12/08:30pm - - - - - NE 11 28 6 15 - - -
12/08:00pm - - - - - ENE 9 30 5 16 - - -
12/07:30pm - - - - - ESE 9 20 5 11 - - -
12/07:00pm - - - - - NNW 11 22 6 12 - - -
12/06:30pm - - - - - WNW 13 30 7 16 - - -
12/06:00pm - - - - - NW 13 28 7 15 - - -
12/05:30pm - - - - - WNW 13 26 7 14 - - -
12/05:00pm - - - - - NW 15 22 8 12 - - -
12/04:30pm - - - - - NW 17 28 9 15 - - -
12/04:00pm - - - - - NW 15 28 8 15 - - -
12/03:30pm - - - - - NW 20 33 11 18 - - -
12/03:00pm - - - - - NW 22 35 12 19 - - -
12/02:30pm - - - - - NW 24 37 13 20 - - -
12/02:00pm - - - - - NW 24 41 13 22 - - -
12/01:30pm - - - - - NW 19 39 10 21 - - -
12/01:00pm - - - - - NW 22 35 12 19 - - -
12/12:30pm - - - - - N 13 32 7 17 - - -
12/12:00pm - - - - - N 15 28 8 15 - - -
12/11:30am - - - - - NNW 13 20 7 11 - - -
12/11:00am - - - - - NNW 13 28 7 15 - - -

Other formats

Comma delimited format used in spreadsheet applications
http://www.bom.gov.au/fwo/IDN60801/IDN60801.95995.axf

JavaScript Object Notation format (JSON) in row-major order
http://www.bom.gov.au/fwo/IDN60801/IDN60801.95995.json

Data quality

Most of these data are generated automatically and are frequently updated. Quality checks on data are not normally performed. It is possible for incorrect values to appear. Refer to information at About Latest Weather Observations and please check the disclaimer before using these data.